sensor_id;sensor_type;location;lat;lon;timestamp;P1;durP1;ratioP1;P2;durP2;ratioP2
19691;SDS011;42748;50.016;19.890;2023-05-17T00:02:10;22.23;;;16.25;;
19691;SDS011;42748;50.016;19.890;2023-05-17T00:04:37;21.73;;;15.73;;
19691;SDS011;42748;50.016;19.890;2023-05-17T00:07:05;22.40;;;15.98;;
19691;SDS011;42748;50.016;19.890;2023-05-17T00:09:32;21.10;;;16.20;;
19691;SDS011;42748;50.016;19.890;2023-05-17T00:12:00;20.15;;;15.48;;
19691;SDS011;42748;50.016;19.890;2023-05-17T00:14:27;20.98;;;16.05;;
19691;SDS011;42748;50.016;19.890;2023-05-17T00:16:55;22.58;;;15.45;;
19691;SDS011;42748;50.016;19.890;2023-05-17T00:19:22;24.08;;;16.00;;
19691;SDS011;42748;50.016;19.890;2023-05-17T00:21:50;20.65;;;15.52;;
19691;SDS011;42748;50.016;19.890;2023-05-17T00:24:18;19.75;;;14.88;;
19691;SDS011;42748;50.016;19.890;2023-05-17T00:26:46;21.08;;;15.63;;
19691;SDS011;42748;50.016;19.890;2023-05-17T00:29:13;22.25;;;15.45;;
19691;SDS011;42748;50.016;19.890;2023-05-17T00:31:41;20.88;;;15.35;;
19691;SDS011;42748;50.016;19.890;2023-05-17T00:34:08;20.90;;;15.30;;
19691;SDS011;42748;50.016;19.890;2023-05-17T00:36:36;19.30;;;14.55;;
19691;SDS011;42748;50.016;19.890;2023-05-17T00:39:03;18.58;;;14.50;;
19691;SDS011;42748;50.016;19.890;2023-05-17T00:41:31;22.90;;;14.45;;
19691;SDS011;42748;50.016;19.890;2023-05-17T00:43:58;20.90;;;14.45;;
19691;SDS011;42748;50.016;19.890;2023-05-17T00:46:26;18.77;;;14.63;;
19691;SDS011;42748;50.016;19.890;2023-05-17T00:48:54;19.05;;;14.60;;
19691;SDS011;42748;50.016;19.890;2023-05-17T00:51:22;21.15;;;14.27;;
19691;SDS011;42748;50.016;19.890;2023-05-17T00:53:49;18.65;;;13.65;;
19691;SDS011;42748;50.016;19.890;2023-05-17T00:56:17;18.75;;;14.68;;
19691;SDS011;42748;50.016;19.890;2023-05-17T00:58:44;17.30;;;13.90;;
19691;SDS011;42748;50.016;19.890;2023-05-17T01:01:12;17.85;;;13.77;;
19691;SDS011;42748;50.016;19.890;2023-05-17T01:03:42;18.38;;;13.50;;
19691;SDS011;42748;50.016;19.890;2023-05-17T01:06:11;18.92;;;14.55;;
19691;SDS011;42748;50.016;19.890;2023-05-17T01:08:39;18.55;;;13.93;;
19691;SDS011;42748;50.016;19.890;2023-05-17T01:14:01;18.60;;;14.15;;
19691;SDS011;42748;50.016;19.890;2023-05-17T01:16:34;19.05;;;14.57;;
19691;SDS011;42748;50.016;19.890;2023-05-17T01:26:52;18.55;;;13.80;;
19691;SDS011;42748;50.016;19.890;2023-05-17T01:29:22;18.77;;;13.15;;
19691;SDS011;42748;50.016;19.890;2023-05-17T01:31:54;18.33;;;13.23;;
19691;SDS011;42748;50.016;19.890;2023-05-17T01:34:23;18.30;;;13.27;;
19691;SDS011;42748;50.016;19.890;2023-05-17T01:36:51;16.70;;;12.90;;
19691;SDS011;42748;50.016;19.890;2023-05-17T01:39:18;17.67;;;12.80;;
19691;SDS011;42748;50.016;19.890;2023-05-17T01:41:50;18.10;;;13.02;;
19691;SDS011;42748;50.016;19.890;2023-05-17T01:44:39;17.75;;;13.15;;
19691;SDS011;42748;50.016;19.890;2023-05-17T01:47:11;15.27;;;11.32;;
19691;SDS011;42748;50.016;19.890;2023-05-17T01:49:39;15.13;;;11.88;;
19691;SDS011;42748;50.016;19.890;2023-05-17T01:52:17;15.45;;;11.00;;
19691;SDS011;42748;50.016;19.890;2023-05-17T01:55:05;14.70;;;10.95;;
19691;SDS011;42748;50.016;19.890;2023-05-17T01:57:35;15.60;;;10.98;;
19691;SDS011;42748;50.016;19.890;2023-05-17T02:00:06;14.05;;;10.88;;
19691;SDS011;42748;50.016;19.890;2023-05-17T02:02:41;15.55;;;10.23;;
19691;SDS011;42748;50.016;19.890;2023-05-17T02:05:08;18.48;;;10.88;;
19691;SDS011;42748;50.016;19.890;2023-05-17T02:07:38;12.40;;;10.23;;
19691;SDS011;42748;50.016;19.890;2023-05-17T02:10:06;12.25;;;9.55;;
19691;SDS011;42748;50.016;19.890;2023-05-17T02:12:35;13.75;;;9.35;;
19691;SDS011;42748;50.016;19.890;2023-05-17T02:15:03;14.48;;;9.93;;
19691;SDS011;42748;50.016;19.890;2023-05-17T02:17:30;12.60;;;9.88;;
19691;SDS011;42748;50.016;19.890;2023-05-17T02:19:58;12.32;;;9.80;;
19691;SDS011;42748;50.016;19.890;2023-05-17T02:22:26;12.32;;;9.40;;
19691;SDS011;42748;50.016;19.890;2023-05-17T02:24:56;11.57;;;8.65;;
19691;SDS011;42748;50.016;19.890;2023-05-17T02:27:23;13.40;;;8.75;;
19691;SDS011;42748;50.016;19.890;2023-05-17T02:29:51;12.43;;;9.43;;
19691;SDS011;42748;50.016;19.890;2023-05-17T02:32:19;12.38;;;9.57;;
19691;SDS011;42748;50.016;19.890;2023-05-17T02:34:46;11.23;;;8.75;;
19691;SDS011;42748;50.016;19.890;2023-05-17T02:37:14;11.57;;;8.65;;
19691;SDS011;42748;50.016;19.890;2023-05-17T02:39:43;9.95;;;7.15;;
19691;SDS011;42748;50.016;19.890;2023-05-17T02:42:10;9.65;;;7.78;;
19691;SDS011;42748;50.016;19.890;2023-05-17T02:44:37;9.52;;;7.63;;
19691;SDS011;42748;50.016;19.890;2023-05-17T02:47:05;9.98;;;7.40;;
19691;SDS011;42748;50.016;19.890;2023-05-17T02:49:34;10.13;;;7.25;;
19691;SDS011;42748;50.016;19.890;2023-05-17T02:52:02;9.90;;;7.15;;
19691;SDS011;42748;50.016;19.890;2023-05-17T02:54:29;7.63;;;6.40;;
19691;SDS011;42748;50.016;19.890;2023-05-17T02:56:57;10.77;;;6.43;;
19691;SDS011;42748;50.016;19.890;2023-05-17T02:59:25;6.97;;;6.28;;
19691;SDS011;42748;50.016;19.890;2023-05-17T03:01:53;7.45;;;5.93;;
19691;SDS011;42748;50.016;19.890;2023-05-17T03:04:21;7.10;;;6.03;;
19691;SDS011;42748;50.016;19.890;2023-05-17T03:06:48;6.75;;;5.60;;
19691;SDS011;42748;50.016;19.890;2023-05-17T03:09:16;6.03;;;5.35;;
19691;SDS011;42748;50.016;19.890;2023-05-17T03:11:47;8.40;;;5.65;;
19691;SDS011;42748;50.016;19.890;2023-05-17T03:14:20;6.70;;;5.40;;
19691;SDS011;42748;50.016;19.890;2023-05-17T03:16:48;7.07;;;5.68;;
19691;SDS011;42748;50.016;19.890;2023-05-17T03:19:16;6.57;;;5.32;;
19691;SDS011;42748;50.016;19.890;2023-05-17T03:21:43;7.63;;;5.78;;
19691;SDS011;42748;50.016;19.890;2023-05-17T03:24:11;6.97;;;5.38;;
19691;SDS011;42748;50.016;19.890;2023-05-17T03:26:40;8.32;;;5.65;;
19691;SDS011;42748;50.016;19.890;2023-05-17T03:29:10;7.70;;;5.82;;
19691;SDS011;42748;50.016;19.890;2023-05-17T03:31:40;9.00;;;5.53;;
19691;SDS011;42748;50.016;19.890;2023-05-17T03:34:07;8.05;;;5.47;;
19691;SDS011;42748;50.016;19.890;2023-05-17T03:36:37;6.30;;;5.55;;
19691;SDS011;42748;50.016;19.890;2023-05-17T03:39:08;6.00;;;5.10;;
19691;SDS011;42748;50.016;19.890;2023-05-17T03:41:37;6.38;;;5.28;;
19691;SDS011;42748;50.016;19.890;2023-05-17T03:44:05;6.97;;;5.60;;
19691;SDS011;42748;50.016;19.890;2023-05-17T03:46:33;6.13;;;5.40;;
19691;SDS011;42748;50.016;19.890;2023-05-17T03:49:01;8.07;;;5.05;;
19691;SDS011;42748;50.016;19.890;2023-05-17T03:51:30;6.05;;;5.10;;
19691;SDS011;42748;50.016;19.890;2023-05-17T03:53:59;5.85;;;4.95;;
19691;SDS011;42748;50.016;19.890;2023-05-17T03:56:28;5.97;;;4.65;;
19691;SDS011;42748;50.016;19.890;2023-05-17T03:58:57;6.72;;;5.13;;
19691;SDS011;42748;50.016;19.890;2023-05-17T04:01:25;5.50;;;4.20;;
19691;SDS011;42748;50.016;19.890;2023-05-17T04:03:52;5.50;;;4.85;;
19691;SDS011;42748;50.016;19.890;2023-05-17T04:06:21;7.05;;;4.40;;
19691;SDS011;42748;50.016;19.890;2023-05-17T04:08:49;5.07;;;4.45;;
19691;SDS011;42748;50.016;19.890;2023-05-17T04:11:16;5.13;;;4.20;;
19691;SDS011;42748;50.016;19.890;2023-05-17T04:13:49;5.25;;;3.67;;
19691;SDS011;42748;50.016;19.890;2023-05-17T04:16:17;4.28;;;3.80;;
19691;SDS011;42748;50.016;19.890;2023-05-17T04:18:44;4.65;;;4.07;;
19691;SDS011;42748;50.016;19.890;2023-05-17T04:21:12;6.43;;;4.15;;
19691;SDS011;42748;50.016;19.890;2023-05-17T04:23:40;5.50;;;4.20;;
19691;SDS011;42748;50.016;19.890;2023-05-17T04:26:08;5.90;;;4.18;;
19691;SDS011;42748;50.016;19.890;2023-05-17T04:28:37;7.35;;;4.80;;
19691;SDS011;42748;50.016;19.890;2023-05-17T04:31:06;7.32;;;4.90;;
19691;SDS011;42748;50.016;19.890;2023-05-17T04:33:34;6.50;;;4.85;;
19691;SDS011;42748;50.016;19.890;2023-05-17T04:36:04;6.03;;;4.82;;
19691;SDS011;42748;50.016;19.890;2023-05-17T04:38:32;6.72;;;4.82;;
19691;SDS011;42748;50.016;19.890;2023-05-17T04:41:01;7.93;;;5.07;;
19691;SDS011;42748;50.016;19.890;2023-05-17T04:43:32;8.07;;;4.50;;
19691;SDS011;42748;50.016;19.890;2023-05-17T04:46:03;5.80;;;4.38;;
19691;SDS011;42748;50.016;19.890;2023-05-17T04:48:32;5.38;;;4.38;;
19691;SDS011;42748;50.016;19.890;2023-05-17T04:51:02;5.75;;;4.82;;
19691;SDS011;42748;50.016;19.890;2023-05-17T04:53:30;5.88;;;4.63;;
19691;SDS011;42748;50.016;19.890;2023-05-17T04:56:05;6.45;;;4.50;;
19691;SDS011;42748;50.016;19.890;2023-05-17T04:58:34;5.43;;;4.40;;
19691;SDS011;42748;50.016;19.890;2023-05-17T05:01:02;6.63;;;4.70;;
19691;SDS011;42748;50.016;19.890;2023-05-17T05:03:32;5.65;;;4.40;;
19691;SDS011;42748;50.016;19.890;2023-05-17T05:06:00;6.60;;;4.32;;
19691;SDS011;42748;50.016;19.890;2023-05-17T05:08:28;5.38;;;4.53;;
19691;SDS011;42748;50.016;19.890;2023-05-17T05:10:56;7.28;;;5.25;;
19691;SDS011;42748;50.016;19.890;2023-05-17T05:13:24;7.13;;;4.72;;
19691;SDS011;42748;50.016;19.890;2023-05-17T05:15:53;5.50;;;4.60;;
19691;SDS011;42748;50.016;19.890;2023-05-17T05:18:20;6.60;;;4.90;;
19691;SDS011;42748;50.016;19.890;2023-05-17T05:20:49;7.07;;;4.53;;
19691;SDS011;42748;50.016;19.890;2023-05-17T05:23:17;5.07;;;4.30;;
19691;SDS011;42748;50.016;19.890;2023-05-17T05:25:47;4.82;;;4.32;;
19691;SDS011;42748;50.016;19.890;2023-05-17T05:28:14;4.75;;;3.97;;
19691;SDS011;42748;50.016;19.890;2023-05-17T05:30:43;8.45;;;3.97;;
19691;SDS011;42748;50.016;19.890;2023-05-17T05:33:12;3.95;;;3.50;;
19691;SDS011;42748;50.016;19.890;2023-05-17T05:35:40;3.92;;;3.50;;
19691;SDS011;42748;50.016;19.890;2023-05-17T05:38:09;5.75;;;3.72;;
19691;SDS011;42748;50.016;19.890;2023-05-17T05:40:36;4.40;;;3.70;;
19691;SDS011;42748;50.016;19.890;2023-05-17T05:43:04;3.53;;;2.97;;
19691;SDS011;42748;50.016;19.890;2023-05-17T05:45:32;3.60;;;3.10;;
19691;SDS011;42748;50.016;19.890;2023-05-17T05:48:01;4.28;;;3.60;;
19691;SDS011;42748;50.016;19.890;2023-05-17T05:50:31;4.05;;;3.10;;
19691;SDS011;42748;50.016;19.890;2023-05-17T05:53:07;4.32;;;2.90;;
19691;SDS011;42748;50.016;19.890;2023-05-17T05:55:50;3.22;;;2.78;;
19691;SDS011;42748;50.016;19.890;2023-05-17T05:58:18;3.22;;;2.60;;
19691;SDS011;42748;50.016;19.890;2023-05-17T06:00:46;3.20;;;2.42;;
19691;SDS011;42748;50.016;19.890;2023-05-17T06:03:14;2.60;;;2.38;;
19691;SDS011;42748;50.016;19.890;2023-05-17T06:05:41;3.97;;;2.60;;
19691;SDS011;42748;50.016;19.890;2023-05-17T06:08:09;2.75;;;2.40;;
19691;SDS011;42748;50.016;19.890;2023-05-17T06:10:37;3.55;;;2.92;;
19691;SDS011;42748;50.016;19.890;2023-05-17T06:13:04;5.63;;;2.80;;
19691;SDS011;42748;50.016;19.890;2023-05-17T06:15:31;4.53;;;2.45;;
19691;SDS011;42748;50.016;19.890;2023-05-17T06:17:59;2.95;;;2.53;;
19691;SDS011;42748;50.016;19.890;2023-05-17T06:20:27;3.53;;;2.80;;
19691;SDS011;42748;50.016;19.890;2023-05-17T06:22:55;3.08;;;2.63;;
19691;SDS011;42748;50.016;19.890;2023-05-17T06:25:22;3.90;;;2.55;;
19691;SDS011;42748;50.016;19.890;2023-05-17T06:27:50;2.83;;;2.40;;
19691;SDS011;42748;50.016;19.890;2023-05-17T06:30:17;3.25;;;2.50;;
19691;SDS011;42748;50.016;19.890;2023-05-17T06:32:45;4.70;;;2.55;;
19691;SDS011;42748;50.016;19.890;2023-05-17T06:35:12;2.50;;;2.15;;
19691;SDS011;42748;50.016;19.890;2023-05-17T06:37:40;2.90;;;2.38;;
19691;SDS011;42748;50.016;19.890;2023-05-17T06:40:08;2.65;;;2.20;;
19691;SDS011;42748;50.016;19.890;2023-05-17T06:42:42;2.85;;;2.20;;
19691;SDS011;42748;50.016;19.890;2023-05-17T06:45:11;2.65;;;1.98;;
19691;SDS011;42748;50.016;19.890;2023-05-17T06:47:38;2.50;;;2.25;;
19691;SDS011;42748;50.016;19.890;2023-05-17T06:50:08;3.85;;;2.35;;
19691;SDS011;42748;50.016;19.890;2023-05-17T06:52:35;3.88;;;2.40;;
19691;SDS011;42748;50.016;19.890;2023-05-17T06:55:03;2.80;;;1.83;;
19691;SDS011;42748;50.016;19.890;2023-05-17T06:57:31;2.58;;;2.10;;
19691;SDS011;42748;50.016;19.890;2023-05-17T06:59:58;2.30;;;1.90;;
19691;SDS011;42748;50.016;19.890;2023-05-17T07:02:26;2.35;;;1.98;;
19691;SDS011;42748;50.016;19.890;2023-05-17T07:04:59;2.78;;;2.13;;
19691;SDS011;42748;50.016;19.890;2023-05-17T07:07:27;3.10;;;2.28;;
19691;SDS011;42748;50.016;19.890;2023-05-17T07:09:55;4.75;;;2.90;;
19691;SDS011;42748;50.016;19.890;2023-05-17T07:12:23;4.57;;;2.63;;
19691;SDS011;42748;50.016;19.890;2023-05-17T07:14:50;7.15;;;3.58;;
19691;SDS011;42748;50.016;19.890;2023-05-17T07:17:18;5.15;;;3.17;;
19691;SDS011;42748;50.016;19.890;2023-05-17T07:19:45;4.43;;;3.28;;
19691;SDS011;42748;50.016;19.890;2023-05-17T07:22:16;3.95;;;3.17;;
19691;SDS011;42748;50.016;19.890;2023-05-17T07:24:44;4.72;;;3.20;;
19691;SDS011;42748;50.016;19.890;2023-05-17T07:27:12;5.68;;;4.25;;
19691;SDS011;42748;50.016;19.890;2023-05-17T07:29:39;4.13;;;3.65;;
19691;SDS011;42748;50.016;19.890;2023-05-17T07:32:07;4.95;;;4.00;;
19691;SDS011;42748;50.016;19.890;2023-05-17T07:34:35;4.88;;;4.00;;
19691;SDS011;42748;50.016;19.890;2023-05-17T07:37:05;6.30;;;4.03;;
19691;SDS011;42748;50.016;19.890;2023-05-17T07:39:32;4.60;;;4.03;;
19691;SDS011;42748;50.016;19.890;2023-05-17T07:42:00;5.90;;;3.70;;
19691;SDS011;42748;50.016;19.890;2023-05-17T07:44:30;5.25;;;4.03;;
19691;SDS011;42748;50.016;19.890;2023-05-17T07:46:58;6.47;;;4.60;;
19691;SDS011;42748;50.016;19.890;2023-05-17T07:49:26;7.05;;;4.25;;
19691;SDS011;42748;50.016;19.890;2023-05-17T07:51:53;5.75;;;4.07;;
19691;SDS011;42748;50.016;19.890;2023-05-17T07:54:22;5.72;;;4.13;;
19691;SDS011;42748;50.016;19.890;2023-05-17T07:56:50;7.30;;;3.95;;
19691;SDS011;42748;50.016;19.890;2023-05-17T07:59:18;6.53;;;4.38;;
19691;SDS011;42748;50.016;19.890;2023-05-17T08:01:46;6.63;;;4.28;;
19691;SDS011;42748;50.016;19.890;2023-05-17T08:04:14;4.78;;;3.92;;
19691;SDS011;42748;50.016;19.890;2023-05-17T08:06:42;4.80;;;3.88;;
19691;SDS011;42748;50.016;19.890;2023-05-17T08:09:11;4.80;;;3.88;;
19691;SDS011;42748;50.016;19.890;2023-05-17T08:11:39;6.63;;;3.80;;
19691;SDS011;42748;50.016;19.890;2023-05-17T08:14:15;5.15;;;3.63;;
19691;SDS011;42748;50.016;19.890;2023-05-17T08:16:44;4.22;;;3.60;;
19691;SDS011;42748;50.016;19.890;2023-05-17T08:19:13;4.88;;;3.60;;
19691;SDS011;42748;50.016;19.890;2023-05-17T08:21:44;4.45;;;3.20;;
19691;SDS011;42748;50.016;19.890;2023-05-17T08:24:11;5.00;;;3.67;;
19691;SDS011;42748;50.016;19.890;2023-05-17T08:26:39;5.07;;;3.85;;
19691;SDS011;42748;50.016;19.890;2023-05-17T08:29:07;6.72;;;4.15;;
19691;SDS011;42748;50.016;19.890;2023-05-17T08:31:36;4.38;;;3.63;;
19691;SDS011;42748;50.016;19.890;2023-05-17T08:34:04;4.68;;;3.90;;
19691;SDS011;42748;50.016;19.890;2023-05-17T08:36:31;5.13;;;4.10;;
19691;SDS011;42748;50.016;19.890;2023-05-17T08:38:59;5.97;;;4.22;;
19691;SDS011;42748;50.016;19.890;2023-05-17T08:41:27;5.97;;;4.10;;
19691;SDS011;42748;50.016;19.890;2023-05-17T08:43:55;6.88;;;3.85;;
19691;SDS011;42748;50.016;19.890;2023-05-17T08:46:24;4.53;;;3.70;;
19691;SDS011;42748;50.016;19.890;2023-05-17T08:48:53;5.13;;;4.18;;
19691;SDS011;42748;50.016;19.890;2023-05-17T08:51:25;6.95;;;4.57;;
19691;SDS011;42748;50.016;19.890;2023-05-17T08:53:54;5.32;;;4.00;;
19691;SDS011;42748;50.016;19.890;2023-05-17T08:56:22;5.05;;;4.05;;
19691;SDS011;42748;50.016;19.890;2023-05-17T08:58:51;4.55;;;3.83;;
19691;SDS011;42748;50.016;19.890;2023-05-17T09:01:23;6.72;;;4.43;;
19691;SDS011;42748;50.016;19.890;2023-05-17T09:03:52;5.15;;;4.15;;
19691;SDS011;42748;50.016;19.890;2023-05-17T09:06:21;9.10;;;4.75;;
19691;SDS011;42748;50.016;19.890;2023-05-17T09:08:49;6.03;;;4.63;;
19691;SDS011;42748;50.016;19.890;2023-05-17T09:11:30;7.30;;;5.63;;
19691;SDS011;42748;50.016;19.890;2023-05-17T09:13:59;6.45;;;5.28;;
19691;SDS011;42748;50.016;19.890;2023-05-17T09:16:30;6.53;;;5.40;;
19691;SDS011;42748;50.016;19.890;2023-05-17T09:18:59;6.68;;;5.40;;
19691;SDS011;42748;50.016;19.890;2023-05-17T09:21:27;7.40;;;5.30;;
19691;SDS011;42748;50.016;19.890;2023-05-17T09:23:59;6.22;;;5.05;;
19691;SDS011;42748;50.016;19.890;2023-05-17T09:26:36;6.30;;;4.78;;
19691;SDS011;42748;50.016;19.890;2023-05-17T09:29:11;6.78;;;4.72;;
19691;SDS011;42748;50.016;19.890;2023-05-17T09:31:39;7.13;;;4.85;;
19691;SDS011;42748;50.016;19.890;2023-05-17T09:34:07;8.00;;;5.05;;
19691;SDS011;42748;50.016;19.890;2023-05-17T09:36:35;7.88;;;4.90;;
19691;SDS011;42748;50.016;19.890;2023-05-17T09:39:04;6.13;;;4.90;;
19691;SDS011;42748;50.016;19.890;2023-05-17T09:41:39;7.45;;;4.88;;
19691;SDS011;42748;50.016;19.890;2023-05-17T09:44:07;6.20;;;4.55;;
19691;SDS011;42748;50.016;19.890;2023-05-17T09:46:36;6.20;;;4.88;;
19691;SDS011;42748;50.016;19.890;2023-05-17T09:49:07;9.30;;;4.70;;
19691;SDS011;42748;50.016;19.890;2023-05-17T09:51:35;6.55;;;5.13;;
19691;SDS011;42748;50.016;19.890;2023-05-17T09:54:04;6.82;;;5.25;;
19691;SDS011;42748;50.016;19.890;2023-05-17T09:56:32;5.35;;;4.55;;
19691;SDS011;42748;50.016;19.890;2023-05-17T09:59:00;6.43;;;4.85;;
19691;SDS011;42748;50.016;19.890;2023-05-17T10:01:28;6.15;;;4.45;;
19691;SDS011;42748;50.016;19.890;2023-05-17T10:04:00;7.00;;;4.80;;
19691;SDS011;42748;50.016;19.890;2023-05-17T10:06:28;6.25;;;4.32;;
19691;SDS011;42748;50.016;19.890;2023-05-17T10:09:12;6.70;;;5.00;;
19691;SDS011;42748;50.016;19.890;2023-05-17T10:11:41;8.98;;;5.72;;
19691;SDS011;42748;50.016;19.890;2023-05-17T10:16:37;9.10;;;5.82;;
19691;SDS011;42748;50.016;19.890;2023-05-17T10:19:05;6.93;;;5.15;;
19691;SDS011;42748;50.016;19.890;2023-05-17T10:21:33;8.23;;;5.50;;
19691;SDS011;42748;50.016;19.890;2023-05-17T10:24:01;6.88;;;5.35;;
19691;SDS011;42748;50.016;19.890;2023-05-17T10:26:29;10.43;;;5.63;;
19691;SDS011;42748;50.016;19.890;2023-05-17T10:28:58;8.52;;;6.00;;
19691;SDS011;42748;50.016;19.890;2023-05-17T10:31:30;7.75;;;5.70;;
19691;SDS011;42748;50.016;19.890;2023-05-17T10:34:02;8.77;;;6.57;;
19691;SDS011;42748;50.016;19.890;2023-05-17T10:36:32;7.72;;;6.15;;
19691;SDS011;42748;50.016;19.890;2023-05-17T10:38:59;9.40;;;6.75;;
19691;SDS011;42748;50.016;19.890;2023-05-17T10:41:29;9.85;;;6.00;;
19691;SDS011;42748;50.016;19.890;2023-05-17T10:43:58;7.28;;;5.28;;
19691;SDS011;42748;50.016;19.890;2023-05-17T10:46:27;9.52;;;6.55;;
19691;SDS011;42748;50.016;19.890;2023-05-17T10:48:56;10.05;;;6.38;;
19691;SDS011;42748;50.016;19.890;2023-05-17T10:51:32;7.95;;;6.20;;
19691;SDS011;42748;50.016;19.890;2023-05-17T10:54:10;9.18;;;7.03;;
19691;SDS011;42748;50.016;19.890;2023-05-17T10:56:38;10.88;;;7.07;;
19691;SDS011;42748;50.016;19.890;2023-05-17T11:02:03;14.63;;;9.23;;
19691;SDS011;42748;50.016;19.890;2023-05-17T11:04:39;15.18;;;9.95;;
19691;SDS011;42748;50.016;19.890;2023-05-17T11:07:29;14.38;;;10.07;;
19691;SDS011;42748;50.016;19.890;2023-05-17T11:12:42;14.30;;;9.85;;
19691;SDS011;42748;50.016;19.890;2023-05-17T11:15:10;15.05;;;10.07;;
19691;SDS011;42748;50.016;19.890;2023-05-17T11:20:28;17.10;;;11.30;;
19691;SDS011;42748;50.016;19.890;2023-05-17T11:22:57;17.15;;;11.20;;
19691;SDS011;42748;50.016;19.890;2023-05-17T11:25:39;16.38;;;11.10;;
19691;SDS011;42748;50.016;19.890;2023-05-17T11:28:08;17.67;;;11.35;;
19691;SDS011;42748;50.016;19.890;2023-05-17T11:30:39;17.33;;;11.45;;
19691;SDS011;42748;50.016;19.890;2023-05-17T11:33:07;19.75;;;11.50;;
19691;SDS011;42748;50.016;19.890;2023-05-17T11:35:51;18.00;;;10.85;;
19691;SDS011;42748;50.016;19.890;2023-05-17T11:38:21;16.10;;;10.00;;
19691;SDS011;42748;50.016;19.890;2023-05-17T11:40:53;15.35;;;10.45;;
19691;SDS011;42748;50.016;19.890;2023-05-17T11:43:22;15.03;;;9.83;;
19691;SDS011;42748;50.016;19.890;2023-05-17T11:45:52;17.92;;;11.00;;
19691;SDS011;42748;50.016;19.890;2023-05-17T11:48:21;17.63;;;10.82;;
19691;SDS011;42748;50.016;19.890;2023-05-17T11:50:49;13.85;;;9.38;;
19691;SDS011;42748;50.016;19.890;2023-05-17T11:53:17;15.40;;;9.45;;
19691;SDS011;42748;50.016;19.890;2023-05-17T11:55:46;13.77;;;9.70;;
19691;SDS011;42748;50.016;19.890;2023-05-17T11:58:14;14.18;;;9.10;;
19691;SDS011;42748;50.016;19.890;2023-05-17T12:00:42;13.75;;;8.80;;
19691;SDS011;42748;50.016;19.890;2023-05-17T12:03:20;14.70;;;8.88;;
19691;SDS011;42748;50.016;19.890;2023-05-17T12:05:49;14.93;;;9.02;;
19691;SDS011;42748;50.016;19.890;2023-05-17T12:08:17;15.82;;;9.63;;
19691;SDS011;42748;50.016;19.890;2023-05-17T12:10:46;13.63;;;9.30;;
19691;SDS011;42748;50.016;19.890;2023-05-17T12:13:14;14.43;;;8.80;;
19691;SDS011;42748;50.016;19.890;2023-05-17T12:15:47;12.82;;;8.57;;
19691;SDS011;42748;50.016;19.890;2023-05-17T12:18:17;13.23;;;8.02;;
19691;SDS011;42748;50.016;19.890;2023-05-17T12:20:55;11.02;;;7.80;;
19691;SDS011;42748;50.016;19.890;2023-05-17T12:23:31;11.15;;;7.28;;
19691;SDS011;42748;50.016;19.890;2023-05-17T12:28:36;12.18;;;7.82;;
19691;SDS011;42748;50.016;19.890;2023-05-17T12:31:14;13.43;;;7.78;;
19691;SDS011;42748;50.016;19.890;2023-05-17T12:33:43;13.23;;;8.30;;
19691;SDS011;42748;50.016;19.890;2023-05-17T12:36:14;12.25;;;7.43;;
19691;SDS011;42748;50.016;19.890;2023-05-17T12:38:43;12.77;;;7.68;;
19691;SDS011;42748;50.016;19.890;2023-05-17T12:41:13;14.27;;;8.15;;
19691;SDS011;42748;50.016;19.890;2023-05-17T12:43:42;12.10;;;8.25;;
19691;SDS011;42748;50.016;19.890;2023-05-17T12:46:14;15.32;;;8.80;;
19691;SDS011;42748;50.016;19.890;2023-05-17T12:48:46;11.13;;;7.80;;
19691;SDS011;42748;50.016;19.890;2023-05-17T12:53:42;11.40;;;7.50;;
19691;SDS011;42748;50.016;19.890;2023-05-17T12:56:14;12.77;;;7.18;;
19691;SDS011;42748;50.016;19.890;2023-05-17T12:58:43;7.75;;;6.00;;
19691;SDS011;42748;50.016;19.890;2023-05-17T13:01:10;7.85;;;5.40;;
19691;SDS011;42748;50.016;19.890;2023-05-17T13:03:40;8.52;;;6.25;;
19691;SDS011;42748;50.016;19.890;2023-05-17T13:06:07;8.00;;;6.32;;
19691;SDS011;42748;50.016;19.890;2023-05-17T13:08:36;9.68;;;6.47;;
19691;SDS011;42748;50.016;19.890;2023-05-17T13:11:13;11.60;;;6.55;;
19691;SDS011;42748;50.016;19.890;2023-05-17T13:13:41;12.18;;;7.85;;
19691;SDS011;42748;50.016;19.890;2023-05-17T13:16:08;10.45;;;7.57;;
19691;SDS011;42748;50.016;19.890;2023-05-17T13:18:51;12.05;;;7.53;;
19691;SDS011;42748;50.016;19.890;2023-05-17T13:21:21;11.43;;;8.00;;
19691;SDS011;42748;50.016;19.890;2023-05-17T13:23:49;12.95;;;8.00;;
19691;SDS011;42748;50.016;19.890;2023-05-17T13:26:17;12.27;;;7.70;;
19691;SDS011;42748;50.016;19.890;2023-05-17T13:28:45;14.70;;;8.95;;
19691;SDS011;42748;50.016;19.890;2023-05-17T13:31:12;12.90;;;8.23;;
19691;SDS011;42748;50.016;19.890;2023-05-17T13:33:40;12.50;;;8.80;;
19691;SDS011;42748;50.016;19.890;2023-05-17T13:36:07;14.82;;;9.65;;
19691;SDS011;42748;50.016;19.890;2023-05-17T13:38:35;15.70;;;9.57;;
19691;SDS011;42748;50.016;19.890;2023-05-17T13:41:02;15.95;;;9.38;;
19691;SDS011;42748;50.016;19.890;2023-05-17T13:43:36;19.48;;;9.70;;
19691;SDS011;42748;50.016;19.890;2023-05-17T13:46:04;15.82;;;9.20;;
19691;SDS011;42748;50.016;19.890;2023-05-17T13:48:32;13.45;;;9.45;;
19691;SDS011;42748;50.016;19.890;2023-05-17T13:50:59;15.23;;;9.63;;
19691;SDS011;42748;50.016;19.890;2023-05-17T13:53:27;15.90;;;9.85;;
19691;SDS011;42748;50.016;19.890;2023-05-17T13:55:55;18.08;;;9.35;;
19691;SDS011;42748;50.016;19.890;2023-05-17T13:58:22;15.80;;;9.75;;
19691;SDS011;42748;50.016;19.890;2023-05-17T14:00:50;14.52;;;9.93;;
19691;SDS011;42748;50.016;19.890;2023-05-17T14:03:18;19.48;;;10.70;;
19691;SDS011;42748;50.016;19.890;2023-05-17T14:05:45;19.23;;;10.80;;
19691;SDS011;42748;50.016;19.890;2023-05-17T14:08:16;21.00;;;11.32;;
19691;SDS011;42748;50.016;19.890;2023-05-17T14:10:43;23.02;;;11.00;;
19691;SDS011;42748;50.016;19.890;2023-05-17T14:13:11;20.17;;;11.57;;
19691;SDS011;42748;50.016;19.890;2023-05-17T14:15:38;20.65;;;11.95;;
19691;SDS011;42748;50.016;19.890;2023-05-17T14:18:06;21.27;;;12.55;;
19691;SDS011;42748;50.016;19.890;2023-05-17T14:20:34;22.83;;;13.32;;
19691;SDS011;42748;50.016;19.890;2023-05-17T14:23:01;21.58;;;13.15;;
19691;SDS011;42748;50.016;19.890;2023-05-17T14:25:29;22.15;;;12.57;;
19691;SDS011;42748;50.016;19.890;2023-05-17T14:27:57;24.27;;;13.55;;
19691;SDS011;42748;50.016;19.890;2023-05-17T14:30:24;21.48;;;13.75;;
19691;SDS011;42748;50.016;19.890;2023-05-17T14:32:52;22.20;;;14.63;;
19691;SDS011;42748;50.016;19.890;2023-05-17T14:35:19;24.20;;;14.95;;
19691;SDS011;42748;50.016;19.890;2023-05-17T14:37:47;22.02;;;14.77;;
19691;SDS011;42748;50.016;19.890;2023-05-17T14:40:14;25.13;;;15.02;;
19691;SDS011;42748;50.016;19.890;2023-05-17T14:42:42;28.67;;;15.85;;
19691;SDS011;42748;50.016;19.890;2023-05-17T14:45:09;28.75;;;16.55;;
19691;SDS011;42748;50.016;19.890;2023-05-17T14:47:37;29.23;;;15.95;;
19691;SDS011;42748;50.016;19.890;2023-05-17T14:50:05;25.95;;;15.38;;
19691;SDS011;42748;50.016;19.890;2023-05-17T14:52:32;27.38;;;15.82;;
19691;SDS011;42748;50.016;19.890;2023-05-17T14:55:00;25.02;;;15.20;;
19691;SDS011;42748;50.016;19.890;2023-05-17T14:57:28;26.08;;;15.13;;
19691;SDS011;42748;50.016;19.890;2023-05-17T14:59:55;28.92;;;15.32;;
19691;SDS011;42748;50.016;19.890;2023-05-17T15:02:23;27.25;;;16.05;;
19691;SDS011;42748;50.016;19.890;2023-05-17T15:04:50;30.00;;;16.20;;